createdAt,value
2019-04-05T00:02:03.605Z,99375.52
2019-04-05T00:04:34.455Z,99372.34
2019-04-05T00:07:05.346Z,99365.20
2019-04-05T00:09:36.839Z,99361.73
2019-04-05T00:12:07.765Z,99361.94
2019-04-05T00:14:39.213Z,99354.31
2019-04-05T00:17:10.527Z,99345.67
2019-04-05T00:19:41.706Z,99345.17
2019-04-05T00:22:12.809Z,99343.86
2019-04-05T00:24:43.653Z,99350.39
2019-04-05T00:27:14.812Z,99362.09
2019-04-05T00:29:45.884Z,99361.82
2019-04-05T00:32:16.701Z,99361.36
2019-04-05T00:34:47.793Z,99353.13
2019-04-05T00:37:18.893Z,99363.73
2019-04-05T00:39:49.981Z,99363.16
2019-04-05T00:42:21.290Z,99359.46
2019-04-05T00:44:52.494Z,99358.35
2019-04-05T00:47:23.576Z,99357.23
2019-04-05T00:49:54.534Z,99343.28
2019-04-05T00:52:25.676Z,99359.39
2019-04-05T00:54:56.810Z,99360.48
2019-04-05T00:57:28.043Z,99370.67
2019-04-05T00:59:59.275Z,99358.63
2019-04-05T01:02:30.393Z,99359.59
2019-04-05T01:05:02.545Z,99369.08
2019-04-05T01:07:33.474Z,99370.11
2019-04-05T01:10:05.017Z,99367.41
2019-04-05T01:12:35.976Z,99359.19
2019-04-05T01:15:08.552Z,99357.99
2019-04-05T01:17:39.751Z,99349.83
2019-04-05T01:20:11.319Z,99337.44
2019-04-05T01:22:42.647Z,99335.12
2019-04-05T01:25:15.082Z,99337.91
2019-04-05T01:27:48.429Z,99343.09
2019-04-05T01:30:19.054Z,99352.69
2019-04-05T01:32:50.748Z,99361.03
2019-04-05T01:35:21.739Z,99360.45
2019-04-05T01:37:52.992Z,99365.92
2019-04-05T01:40:24.605Z,99364.69
2019-04-05T01:42:55.973Z,99359.36
2019-04-05T01:45:26.782Z,99366.77
2019-04-05T01:47:58.002Z,99365.45
2019-04-05T01:50:29.970Z,99380.40
2019-04-05T01:53:01.206Z,99373.27
2019-04-05T01:55:32.117Z,99389.96
2019-04-05T01:58:06.017Z,99392.59
2019-04-05T02:00:36.897Z,99387.52
2019-04-05T02:03:08.309Z,99397.13
2019-04-05T02:05:40.085Z,99395.61
2019-04-05T02:08:11.164Z,99405.58
2019-04-05T02:10:42.247Z,99406.06
2019-04-05T02:13:14.345Z,99406.06
2019-04-05T02:15:45.311Z,99403.03
2019-04-05T02:18:16.246Z,99409.80
2019-04-05T02:20:47.210Z,99414.30
2019-04-05T02:23:18.408Z,99417.50
2019-04-05T02:25:49.637Z,99415.27
2019-04-05T02:28:20.769Z,99415.42
2019-04-05T02:30:51.627Z,99422.00
2019-04-05T02:33:22.549Z,99425.86
2019-04-05T02:35:53.484Z,99431.04
2019-04-05T02:38:24.484Z,99432.72
2019-04-05T02:40:58.497Z,99439.94
2019-04-05T02:43:30.646Z,99442.67
2019-04-05T02:46:02.680Z,99438.63
2019-04-05T02:48:35.875Z,99426.42
2019-04-05T02:51:10.276Z,99426.98
2019-04-05T02:53:42.186Z,99433.39
2019-04-05T02:56:13.535Z,99433.11
2019-04-05T02:58:45.377Z,99433.08
2019-04-05T03:01:16.714Z,99431.40
2019-04-05T03:03:47.639Z,99428.69
2019-04-05T03:06:18.972Z,99431.69
2019-04-05T03:08:49.876Z,99436.38
2019-04-05T03:11:21.193Z,99430.93
2019-04-05T03:13:57.279Z,99426.91
2019-04-05T03:16:40.795Z,99431.60
2019-04-05T03:19:10.631Z,99425.95
2019-04-05T03:21:44.289Z,99421.84
2019-04-05T03:24:18.412Z,99413.75
2019-04-05T03:26:54.681Z,99414.51
2019-04-05T03:29:25.774Z,99421.08
2019-04-05T03:31:57.178Z,99420.52
2019-04-05T03:34:28.092Z,99411.96
2019-04-05T03:36:59.297Z,99418.81
2019-04-05T03:39:32.761Z,99412.80
2019-04-05T03:42:03.805Z,99425.67
2019-04-05T03:44:34.747Z,99423.59
2019-04-05T03:47:05.722Z,99422.40
2019-04-05T03:49:37.431Z,99428.02
2019-04-05T03:52:09.290Z,99432.80
2019-04-05T03:54:40.142Z,99433.39
2019-04-05T03:57:12.134Z,99437.14
2019-04-05T03:59:43.498Z,99434.67
2019-04-05T04:02:14.587Z,99425.03
2019-04-05T04:04:45.660Z,99430.56
2019-04-05T04:07:16.584Z,99434.59
2019-04-05T04:09:49.056Z,99437.14
2019-04-05T04:12:20.160Z,99439.49
2019-04-05T04:14:51.418Z,99443.43
2019-04-05T04:17:22.538Z,99442.00
2019-04-05T04:19:53.338Z,99442.67
2019-04-05T04:22:29.094Z,99445.67
2019-04-05T04:25:01.247Z,99438.17
2019-04-05T04:27:32.179Z,99443.99
2019-04-05T04:30:03.329Z,99448.97
2019-04-05T04:32:34.665Z,99445.67
2019-04-05T04:35:06.142Z,99449.79
2019-04-05T04:37:37.063Z,99454.50
2019-04-05T04:40:08.089Z,99464.82
2019-04-05T04:42:40.243Z,99471.59
2019-04-05T04:45:13.113Z,99475.26
2019-04-05T04:47:44.216Z,99479.84
2019-04-05T04:50:16.715Z,99479.55
2019-04-05T04:52:47.595Z,99488.41
2019-04-05T04:55:19.509Z,99491.59
2019-04-05T04:57:51.166Z,99492.83
2019-04-05T05:00:22.658Z,99494.89
2019-04-05T05:02:54.048Z,99508.39
2019-04-05T05:05:30.573Z,99503.91
2019-04-05T05:08:01.404Z,99503.80
2019-04-05T05:10:32.459Z,99508.42
2019-04-05T05:13:03.400Z,99510.20
2019-04-05T05:15:34.237Z,99519.69
2019-04-05T05:18:05.375Z,99522.96
2019-04-05T05:20:36.556Z,99520.25
2019-04-05T05:23:07.839Z,99519.95
2019-04-05T05:25:39.736Z,99516.66
2019-04-05T05:28:12.048Z,99522.13
2019-04-05T05:30:42.969Z,99530.00
2019-04-05T05:33:13.822Z,99532.73
2019-04-05T05:35:45.137Z,99528.06
2019-04-05T05:38:16.072Z,99528.70
2019-04-05T05:40:47.237Z,99528.98
2019-04-05T05:43:18.443Z,99532.56
2019-04-05T05:45:49.351Z,99533.69
2019-04-05T05:48:20.294Z,99535.28
2019-04-05T05:50:52.175Z,99544.30
2019-04-05T05:53:23.335Z,99535.83
2019-04-05T05:55:54.273Z,99535.95
2019-04-05T05:58:25.808Z,99528.45
2019-04-05T06:00:57.572Z,99537.09
2019-04-05T06:03:28.424Z,99534.73
2019-04-05T06:06:04.521Z,99532.37
2019-04-05T06:08:32.583Z,99539.89
2019-04-05T06:11:03.595Z,99535.76
2019-04-05T06:13:34.433Z,99540.17
2019-04-05T06:16:05.768Z,99538.30
2019-04-05T06:18:36.653Z,99544.41
2019-04-05T06:21:07.871Z,99536.87
2019-04-05T06:23:39.113Z,99528.34
2019-04-05T06:26:10.385Z,99527.19
2019-04-05T06:28:41.261Z,99526.34
2019-04-05T06:31:12.446Z,99533.31
2019-04-05T06:33:43.296Z,99548.16
2019-04-05T06:36:14.191Z,99547.04
2019-04-05T06:38:45.303Z,99543.39
2019-04-05T06:41:16.502Z,99540.74
2019-04-05T06:43:47.370Z,99547.69
2019-04-05T06:46:18.428Z,99553.05
2019-04-05T06:48:49.286Z,99556.42
2019-04-05T06:51:20.130Z,99560.19
2019-04-05T06:53:52.611Z,99561.78
2019-04-05T06:56:23.476Z,99561.78
2019-04-05T06:58:54.359Z,99558.13
2019-04-05T07:01:25.482Z,99564.13
2019-04-05T07:03:56.319Z,99562.66
2019-04-05T07:06:27.184Z,99563.48
2019-04-05T07:08:58.043Z,99566.04
2019-04-05T07:11:28.887Z,99573.25
2019-04-05T07:14:00.025Z,99566.66
2019-04-05T07:16:30.888Z,99566.69
2019-04-05T07:19:02.014Z,99574.96
2019-04-05T07:21:33.461Z,99581.63
2019-04-05T07:24:04.321Z,99591.67
2019-04-05T07:26:35.620Z,99591.92
2019-04-05T07:29:06.992Z,99581.52
2019-04-05T07:31:37.828Z,99581.81
2019-04-05T07:34:08.794Z,99568.38
2019-04-05T07:36:39.935Z,99572.13
2019-04-05T07:39:10.795Z,99570.81
2019-04-05T07:41:41.920Z,99575.70
2019-04-05T07:44:13.035Z,99577.40
2019-04-05T07:46:46.439Z,99576.65
2019-04-05T07:49:16.514Z,99577.48
2019-04-05T07:51:47.599Z,99569.11
2019-04-05T07:54:18.451Z,99577.13
2019-04-05T07:56:49.380Z,99584.91
2019-04-05T07:59:21.141Z,99585.48
2019-04-05T08:01:52.127Z,99585.32
2019-04-05T08:04:38.034Z,99588.50
2019-04-05T08:07:09.506Z,99590.55
2019-04-05T08:09:41.011Z,99584.08
2019-04-05T08:12:12.508Z,99583.03
2019-04-05T08:14:43.681Z,99577.42
2019-04-05T08:17:14.516Z,99583.72
2019-04-05T08:19:45.350Z,99588.91
2019-04-05T08:22:16.208Z,99591.34
2019-04-05T08:24:47.180Z,99586.55
2019-04-05T08:27:18.551Z,99589.55
2019-04-05T08:29:49.654Z,99584.40
2019-04-05T08:32:20.544Z,99586.64
2019-04-05T08:34:51.688Z,99580.53
2019-04-05T08:37:22.921Z,99583.91
2019-04-05T08:39:54.061Z,99586.55
2019-04-05T08:42:27.003Z,99587.95
2019-04-05T08:45:01.058Z,99591.63
2019-04-05T08:47:32.159Z,99592.77
2019-04-05T08:50:03.041Z,99602.27
2019-04-05T08:52:33.877Z,99604.50
2019-04-05T08:55:05.880Z,99602.35
2019-04-05T08:57:37.783Z,99602.55
2019-04-05T09:00:08.997Z,99604.78
2019-04-05T09:02:40.116Z,99607.90
2019-04-05T09:05:11.086Z,99606.84
2019-04-05T09:07:42.365Z,99612.95
2019-04-05T09:10:13.295Z,99622.18
2019-04-05T09:12:44.241Z,99611.37
2019-04-05T09:15:15.608Z,99599.43
2019-04-05T09:17:46.450Z,99599.43
2019-04-05T09:20:17.539Z,99609.54
2019-04-05T09:22:48.709Z,99614.95
2019-04-05T09:25:20.005Z,99618.82
2019-04-05T09:27:50.916Z,99623.22
2019-04-05T09:30:21.829Z,99622.66
2019-04-05T09:32:52.681Z,99617.11
2019-04-05T09:35:23.766Z,99618.23
2019-04-05T09:37:54.624Z,99617.59
2019-04-05T09:40:25.835Z,99616.63
2019-04-05T09:42:56.658Z,99612.87
2019-04-05T09:45:27.794Z,99613.16
2019-04-05T09:47:58.931Z,99611.77
2019-04-05T09:50:29.864Z,99613.44
2019-04-05T09:53:00.954Z,99619.55
2019-04-05T09:55:31.881Z,99615.59
2019-04-05T09:58:02.998Z,99620.14
2019-04-05T10:00:34.445Z,99623.59
2019-04-05T10:03:05.345Z,99624.24
2019-04-05T10:05:36.208Z,99629.23
2019-04-05T10:08:07.317Z,99641.17
2019-04-05T10:10:38.453Z,99629.16
2019-04-05T10:13:10.237Z,99629.16
2019-04-05T10:15:41.331Z,99630.84
2019-04-05T10:18:12.477Z,99631.19
2019-04-05T10:20:43.444Z,99634.66
2019-04-05T10:23:15.079Z,99635.53
2019-04-05T10:25:45.957Z,99641.56
2019-04-05T10:28:16.873Z,99647.55
2019-04-05T10:30:47.804Z,99646.64
2019-04-05T10:33:18.978Z,99645.60
2019-04-05T10:35:50.081Z,99643.05
2019-04-05T10:38:21.242Z,99642.48
2019-04-05T10:40:52.367Z,99636.86
2019-04-05T10:43:23.301Z,99637.97
2019-04-05T10:45:54.233Z,99645.23
2019-04-05T10:48:25.145Z,99645.32
2019-04-05T10:50:56.084Z,99650.78
2019-04-05T10:53:27.279Z,99655.09
2019-04-05T10:55:58.106Z,99646.62
2019-04-05T10:58:29.135Z,99648.30
2019-04-05T11:01:00.068Z,99648.15
2019-04-05T11:03:31.211Z,99654.34
2019-04-05T11:06:02.084Z,99649.91
2019-04-05T11:08:32.941Z,99656.97
2019-04-05T11:11:03.851Z,99658.00
2019-04-05T11:13:34.768Z,99658.41
2019-04-05T11:16:05.715Z,99660.00
2019-04-05T11:18:36.941Z,99663.32
2019-04-05T11:21:08.079Z,99659.37
2019-04-05T11:23:39.218Z,99655.55
2019-04-05T11:26:10.302Z,99655.55
2019-04-05T11:28:41.480Z,99663.23
2019-04-05T11:31:12.404Z,99658.63
2019-04-05T11:33:43.503Z,99658.63
2019-04-05T11:36:14.470Z,99658.83
2019-04-05T11:38:45.792Z,99662.09
2019-04-05T11:41:16.862Z,99665.12
2019-04-05T11:43:49.008Z,99670.46
2019-04-05T11:46:22.730Z,99672.46
2019-04-05T11:48:53.912Z,99673.17
2019-04-05T11:51:24.894Z,99680.54
2019-04-05T11:53:56.014Z,99685.95
2019-04-05T11:56:27.468Z,99693.84
2019-04-05T11:58:58.561Z,99688.52
2019-04-05T12:01:34.790Z,99684.88
2019-04-05T12:04:05.923Z,99690.58
2019-04-05T12:06:37.203Z,99692.53
2019-04-05T12:09:09.269Z,99687.79
2019-04-05T12:11:40.392Z,99685.73
2019-04-05T12:14:12.740Z,99683.61
2019-04-05T12:16:45.324Z,99684.86
2019-04-05T12:19:18.259Z,99687.14
2019-04-05T12:21:49.537Z,99688.20
2019-04-05T12:24:20.697Z,99692.50
2019-04-05T12:26:51.546Z,99683.94
2019-04-05T12:29:22.378Z,99682.41
2019-04-05T12:31:53.912Z,99683.09
2019-04-05T12:34:24.888Z,99679.83
2019-04-05T12:36:55.784Z,99682.75
2019-04-05T12:39:27.248Z,99679.83
2019-04-05T12:41:58.397Z,99682.55
2019-04-05T12:44:30.193Z,99692.36
2019-04-05T12:47:01.110Z,99686.95
2019-04-05T12:49:32.246Z,99687.87
2019-04-05T12:52:03.388Z,99684.95
2019-04-05T12:54:35.557Z,99685.02
2019-04-05T12:57:06.416Z,99682.28
2019-04-05T12:59:37.313Z,99679.33
2019-04-05T13:02:08.350Z,99674.05
2019-04-05T13:04:39.508Z,99672.89
2019-04-05T13:07:11.459Z,99675.39
2019-04-05T13:09:45.517Z,99675.92
2019-04-05T13:12:14.933Z,99663.80
2019-04-05T13:14:45.803Z,99672.35
2019-04-05T13:17:16.888Z,99673.61
2019-04-05T13:19:48.099Z,99673.80
2019-04-05T13:22:19.259Z,99668.81
2019-04-05T13:24:50.452Z,99676.81
2019-04-05T13:27:21.314Z,99668.81
2019-04-05T13:29:52.173Z,99664.91
2019-04-05T13:32:23.016Z,99675.14
2019-04-05T13:34:55.707Z,99664.08
2019-04-05T13:37:28.562Z,99663.87
2019-04-05T13:40:01.462Z,99662.09
2019-04-05T13:42:35.314Z,99659.70
2019-04-05T13:45:05.820Z,99660.89
2019-04-05T13:47:38.960Z,99665.06
2019-04-05T13:50:11.330Z,99662.94
2019-04-05T13:52:42.485Z,99659.30
2019-04-05T13:55:13.750Z,99664.38
2019-04-05T13:57:44.709Z,99661.17
2019-04-05T14:00:18.360Z,99664.80
2019-04-05T14:02:51.354Z,99663.38
2019-04-05T14:05:22.832Z,99666.69
2019-04-05T14:08:08.997Z,99667.80
2019-04-05T14:10:26.293Z,99669.40
2019-04-05T14:12:57.490Z,99666.80
2019-04-05T14:15:31.194Z,99668.91
2019-04-05T14:18:01.420Z,99673.64
2019-04-05T14:20:32.305Z,99671.84
2019-04-05T14:23:03.190Z,99676.02
2019-04-05T14:25:34.046Z,99674.12
2019-04-05T14:28:05.334Z,99673.22
2019-04-05T14:30:36.726Z,99672.35
2019-04-05T14:33:08.201Z,99669.23
2019-04-05T14:35:39.369Z,99666.33
2019-04-05T14:38:11.854Z,99667.25
2019-04-05T14:40:42.775Z,99674.50
2019-04-05T14:43:15.141Z,99669.28
2019-04-05T14:45:47.887Z,99658.45
2019-04-05T14:48:19.007Z,99666.59
2019-04-05T14:50:51.045Z,99669.05
2019-04-05T14:53:22.233Z,99664.73
2019-04-05T14:55:53.180Z,99668.52
2019-04-05T14:58:24.102Z,99668.84
2019-04-05T15:00:55.021Z,99667.25
2019-04-05T15:03:26.087Z,99664.73
2019-04-05T15:05:57.111Z,99667.07
2019-04-05T15:08:28.276Z,99659.72
2019-04-05T15:11:07.193Z,99661.61
2019-04-05T15:13:38.039Z,99661.62
2019-04-05T15:16:08.969Z,99656.94
2019-04-05T15:18:39.815Z,99655.59
2019-04-05T15:21:12.055Z,99656.71
2019-04-05T15:23:45.260Z,99670.30
2019-04-05T15:26:15.734Z,99665.28
2019-04-05T15:28:46.891Z,99670.23
2019-04-05T15:31:17.761Z,99668.50
2019-04-05T15:33:48.745Z,99672.83
2019-04-05T15:36:20.029Z,99675.05
2019-04-05T15:38:51.036Z,99679.88
2019-04-05T15:41:22.084Z,99675.88
2019-04-05T15:43:53.154Z,99679.38
2019-04-05T15:46:24.368Z,99676.00
2019-04-05T15:48:55.308Z,99674.99
2019-04-05T15:51:27.134Z,99675.88
2019-04-05T15:53:59.506Z,99678.12
2019-04-05T15:56:33.365Z,99669.08
2019-04-05T15:59:04.845Z,99667.20
2019-04-05T16:01:35.757Z,99669.91
2019-04-05T16:04:06.637Z,99666.92
2019-04-05T16:06:39.232Z,99663.20
2019-04-05T16:09:11.988Z,99668.88
2019-04-05T16:11:42.937Z,99672.05
2019-04-05T16:14:14.112Z,99670.55
2019-04-05T16:16:45.030Z,99670.78
2019-04-05T16:19:16.432Z,99673.68
2019-04-05T16:21:47.506Z,99676.77
2019-04-05T16:24:18.423Z,99677.11
2019-04-05T16:26:49.457Z,99685.89
2019-04-05T16:29:20.596Z,99690.07
2019-04-05T16:31:51.702Z,99686.91
2019-04-05T16:34:22.624Z,99688.68
2019-04-05T16:36:53.677Z,99687.91
2019-04-05T16:39:24.601Z,99689.46
2019-04-05T16:41:56.168Z,99666.27
2019-04-05T16:44:27.152Z,99680.13
2019-04-05T16:46:57.986Z,99685.57
2019-04-05T16:49:29.471Z,99688.47
2019-04-05T16:52:00.606Z,99691.83
2019-04-05T16:54:31.502Z,99695.45
2019-04-05T16:57:02.838Z,99690.38
2019-04-05T16:59:34.062Z,99688.22
2019-04-05T17:02:05.087Z,99692.81
2019-04-05T17:04:37.746Z,99690.48
2019-04-05T17:07:08.693Z,99690.27
2019-04-05T17:09:39.574Z,99696.03
2019-04-05T17:12:10.467Z,99689.78
2019-04-05T17:14:41.924Z,99695.86
2019-04-05T17:17:13.051Z,99693.17
2019-04-05T17:19:44.129Z,99692.86
2019-04-05T17:22:15.339Z,99695.38
2019-04-05T17:24:46.218Z,99690.40
2019-04-05T17:27:17.347Z,99689.13
2019-04-05T17:29:48.306Z,99696.22
2019-04-05T17:32:19.183Z,99692.95
2019-04-05T17:34:50.484Z,99691.99
2019-04-05T17:37:21.335Z,99689.73
2019-04-05T17:39:52.406Z,99695.92
2019-04-05T17:42:24.310Z,99698.84
2019-04-05T17:44:55.663Z,99701.94
2019-04-05T17:47:26.816Z,99705.14
2019-04-05T17:49:58.027Z,99704.75
2019-04-05T17:52:29.066Z,99701.77
2019-04-05T17:55:00.238Z,99701.77
2019-04-05T17:57:31.642Z,99703.20
2019-04-05T18:00:02.682Z,99704.66
2019-04-05T18:02:35.267Z,99708.58
2019-04-05T18:05:06.287Z,99713.69
2019-04-05T18:07:38.512Z,99717.38
2019-04-05T18:10:09.697Z,99718.37
2019-04-05T18:12:40.765Z,99723.88
2019-04-05T18:15:12.249Z,99732.44
2019-04-05T18:17:48.890Z,99726.47
2019-04-05T18:20:22.993Z,99728.52
2019-04-05T18:22:54.398Z,99730.22
2019-04-05T18:25:25.312Z,99729.42
2019-04-05T18:27:56.295Z,99736.34
2019-04-05T18:30:27.296Z,99730.61
2019-04-05T18:32:58.261Z,99741.95
2019-04-05T18:35:29.425Z,99740.46
2019-04-05T18:38:00.841Z,99740.34
2019-04-05T18:40:39.870Z,99741.36
2019-04-05T18:43:04.706Z,99745.61
2019-04-05T18:45:35.694Z,99741.41
2019-04-05T18:48:06.684Z,99750.32
2019-04-05T18:50:37.937Z,99744.50
2019-04-05T18:53:08.967Z,99747.32
2019-04-05T18:55:40.125Z,99757.51
2019-04-05T18:58:10.963Z,99750.18
2019-04-05T19:00:42.268Z,99755.45
2019-04-05T19:03:13.217Z,99758.42
2019-04-05T19:05:44.253Z,99743.66
2019-04-05T19:08:15.289Z,99743.75
2019-04-05T19:10:46.444Z,99745.70
2019-04-05T19:13:17.310Z,99748.47
2019-04-05T19:15:48.674Z,99747.44
2019-04-05T19:18:19.771Z,99739.16
2019-04-05T19:20:51.776Z,99739.81
2019-04-05T19:23:23.378Z,99748.74
2019-04-05T19:25:54.542Z,99742.25
2019-04-05T19:28:25.942Z,99738.69
2019-04-05T19:48:46.693Z,99743.89
2019-04-05T19:51:17.946Z,99746.14
2019-04-05T19:53:48.797Z,99740.71
2019-04-05T19:56:22.157Z,99753.41
2019-04-05T19:58:53.620Z,99754.25
2019-04-05T20:01:24.537Z,99758.89
2019-04-05T20:03:56.547Z,99752.66
2019-04-05T20:06:27.792Z,99745.59
2019-04-05T20:08:59.145Z,99748.23
2019-04-05T20:11:30.167Z,99745.23
2019-04-05T20:14:01.595Z,99749.73
2019-04-05T20:16:32.692Z,99752.02
2019-04-05T20:19:04.027Z,99747.39
2019-04-05T20:21:35.242Z,99747.66
2019-04-05T20:24:14.065Z,99755.67
2019-04-05T20:26:39.919Z,99757.64
2019-04-05T20:29:10.933Z,99760.09
2019-04-05T20:31:43.028Z,99757.23
2019-04-05T20:34:14.705Z,99762.80
2019-04-05T20:36:46.108Z,99768.16
2019-04-05T20:39:17.002Z,99767.55
2019-04-05T20:41:47.981Z,99764.94
2019-04-05T20:44:22.918Z,99768.42
2019-04-05T20:46:54.353Z,99775.91
2019-04-05T20:49:25.534Z,99772.24
2019-04-05T20:51:56.421Z,99768.04
2019-04-05T20:54:28.418Z,99774.48
2019-04-05T20:56:59.406Z,99770.88
2019-04-05T20:59:30.357Z,99771.33
2019-04-05T21:02:01.522Z,99771.86
2019-04-05T21:04:32.419Z,99772.52
2019-04-05T21:07:03.345Z,99774.09
2019-04-05T21:09:34.242Z,99780.70
2019-04-05T21:12:05.198Z,99779.83
2019-04-05T21:14:36.083Z,99780.42
2019-04-05T21:17:06.979Z,99775.25
2019-04-05T21:19:38.105Z,99778.91
2019-04-05T21:22:10.429Z,99773.25
2019-04-05T21:24:41.535Z,99772.95
2019-04-05T21:27:12.809Z,99771.06
2019-04-05T21:29:44.037Z,99774.30
2019-04-05T21:32:14.872Z,99761.70
2019-04-05T21:34:46.069Z,99768.83
2019-04-05T21:37:17.280Z,99771.52
2019-04-05T21:39:49.508Z,99766.38
2019-04-05T21:42:20.667Z,99763.52
2019-04-05T21:44:51.913Z,99763.72
2019-04-05T21:47:23.040Z,99761.92
2019-04-05T21:49:53.910Z,99761.27
2019-04-05T21:52:24.876Z,99757.87
2019-04-05T21:54:56.231Z,99756.48
2019-04-05T21:57:27.107Z,99764.55
2019-04-05T21:59:57.979Z,99759.98
2019-04-05T22:02:28.944Z,99753.23
2019-04-05T22:05:01.322Z,99751.73
2019-04-05T22:07:32.314Z,99762.33
2019-04-05T22:10:03.247Z,99762.03
2019-04-05T22:12:34.313Z,99759.48
2019-04-05T22:15:05.262Z,99764.27
2019-04-05T22:17:36.392Z,99771.67
2019-04-05T22:20:07.244Z,99778.83
2019-04-05T22:22:38.096Z,99776.84
2019-04-05T22:25:09.071Z,99779.03
2019-04-05T22:27:40.017Z,99773.40
2019-04-05T22:30:11.093Z,99779.17
2019-04-05T22:32:42.873Z,99782.83
2019-04-05T22:35:14.053Z,99784.11
2019-04-05T22:37:44.935Z,99785.67
2019-04-05T22:40:15.774Z,99789.34
2019-04-05T22:42:47.025Z,99794.74
2019-04-05T22:45:17.875Z,99786.44
2019-04-05T22:47:48.745Z,99783.14
2019-04-05T22:50:19.663Z,99790.52
2019-04-05T22:52:50.775Z,99795.14
2019-04-05T22:55:23.002Z,99787.98
2019-04-05T22:57:53.882Z,99785.20
2019-04-05T23:00:24.747Z,99783.53
2019-04-05T23:02:55.914Z,99790.67
2019-04-05T23:05:26.750Z,99784.19
2019-04-05T23:07:57.616Z,99792.19
2019-04-05T23:10:28.754Z,99789.31
2019-04-05T23:12:59.849Z,99787.09
2019-04-05T23:15:30.792Z,99784.83
2019-04-05T23:18:01.666Z,99778.50
2019-04-05T23:20:32.756Z,99779.91
2019-04-05T23:23:03.900Z,99784.69
2019-04-05T23:25:34.728Z,99789.91
2019-04-05T23:28:05.575Z,99796.83
2019-04-05T23:30:36.519Z,99791.57
2019-04-05T23:33:07.371Z,99799.35
2019-04-05T23:35:38.224Z,99799.33
2019-04-05T23:38:09.187Z,99797.84
2019-04-05T23:40:40.994Z,99808.77
2019-04-05T23:43:12.107Z,99807.09
2019-04-05T23:45:43.313Z,99812.55
2019-04-05T23:48:14.458Z,99805.67
2019-04-05T23:50:45.739Z,99807.66
2019-04-05T23:53:16.629Z,99810.45
2019-04-05T23:55:47.518Z,99813.44
2019-04-05T23:58:18.398Z,99819.35
